createdAt,value
2023-02-18T00:04:13.466Z,6.26
2023-02-18T00:09:21.673Z,6.20
2023-02-18T00:14:30.261Z,6.17
2023-02-18T00:19:39.397Z,6.16
2023-02-18T00:24:47.981Z,6.15
2023-02-18T00:29:56.198Z,6.13
2023-02-18T00:35:03.937Z,6.10
2023-02-18T00:40:13.731Z,6.07
2023-02-18T00:45:21.286Z,6.02
2023-02-18T00:50:28.673Z,5.97
2023-02-18T00:55:43.130Z,5.91
2023-02-18T01:00:51.669Z,5.86
2023-02-18T01:05:59.229Z,5.81
2023-02-18T01:11:07.811Z,5.78
2023-02-18T01:16:15.974Z,5.76
2023-02-18T01:21:26.789Z,5.72
2023-02-18T01:26:35.244Z,5.67
2023-02-18T01:31:43.658Z,5.63
2023-02-18T01:36:51.722Z,5.62
2023-02-18T01:41:59.925Z,5.59
2023-02-18T01:47:08.351Z,5.57
2023-02-18T01:52:21.024Z,5.56
2023-02-18T01:57:33.241Z,5.52
2023-02-18T02:02:46.206Z,5.47
2023-02-18T02:07:56.486Z,5.44
2023-02-18T02:13:09.483Z,5.43
2023-02-18T02:18:36.734Z,5.41
2023-02-18T02:24:08.602Z,5.38
2023-02-18T02:29:49.724Z,5.34
2023-02-18T02:35:03.069Z,5.30
2023-02-18T02:40:27.560Z,5.29
2023-02-18T02:45:50.563Z,5.28
2023-02-18T02:51:06.914Z,5.26
2023-02-18T02:56:19.104Z,5.27
2023-02-18T03:01:38.526Z,5.26
2023-02-18T03:07:15.628Z,5.24
2023-02-18T03:12:32.959Z,5.27
2023-02-18T03:17:48.420Z,5.27
2023-02-18T03:22:57.922Z,5.27
2023-02-18T03:28:09.287Z,5.28
2023-02-18T03:33:22.729Z,5.29
2023-02-18T03:38:38.399Z,5.29
2023-02-18T03:43:53.699Z,5.31
2023-02-18T03:49:02.884Z,5.34
2023-02-18T03:54:11.436Z,5.36
2023-02-18T03:59:22.205Z,5.37
2023-02-18T04:04:30.587Z,5.36
2023-02-18T04:09:39.092Z,5.35
2023-02-18T04:14:46.871Z,5.33
2023-02-18T04:19:54.919Z,5.30
2023-02-18T04:25:02.368Z,5.28
2023-02-18T04:30:11.883Z,5.25
2023-02-18T04:35:20.345Z,5.21
2023-02-18T04:40:31.217Z,5.17
2023-02-18T04:45:38.872Z,5.12
2023-02-18T04:50:47.498Z,5.08
2023-02-18T04:55:57.160Z,5.03
2023-02-18T05:01:05.908Z,4.98
2023-02-18T05:06:13.368Z,4.94
2023-02-18T05:11:21.400Z,4.92
2023-02-18T05:16:30.181Z,4.89
2023-02-18T05:21:38.150Z,4.88
2023-02-18T05:26:46.666Z,4.87
2023-02-18T05:31:55.313Z,4.88
2023-02-18T05:37:04.332Z,4.86
2023-02-18T05:42:13.342Z,4.85
2023-02-18T05:47:21.787Z,4.84
2023-02-18T05:52:30.043Z,4.82
2023-02-18T05:57:38.105Z,4.81
2023-02-18T06:02:47.132Z,4.81
2023-02-18T06:07:56.633Z,4.81
2023-02-18T06:13:04.949Z,4.82
2023-02-18T06:18:13.542Z,4.82
2023-02-18T06:23:22.925Z,4.82
2023-02-18T06:28:32.703Z,4.81
2023-02-18T06:33:41.580Z,4.81
2023-02-18T06:38:49.674Z,4.81
2023-02-18T06:43:58.889Z,4.83
2023-02-18T06:49:06.587Z,4.86
2023-02-18T06:54:15.175Z,4.88
2023-02-18T06:59:23.052Z,4.90
2023-02-18T07:04:30.846Z,4.93
2023-02-18T07:09:39.071Z,4.97
2023-02-18T07:14:46.823Z,5.01
2023-02-18T07:19:56.139Z,5.03
2023-02-18T07:25:04.594Z,5.06
2023-02-18T07:30:13.067Z,5.09
2023-02-18T07:35:23.264Z,5.13
2023-02-18T07:40:31.890Z,5.16
2023-02-18T07:45:41.855Z,5.20
2023-02-18T07:50:49.904Z,5.23
2023-02-18T07:56:00.744Z,5.28
2023-02-18T08:01:11.739Z,5.31
2023-02-18T08:06:27.327Z,5.33
2023-02-18T08:11:37.026Z,5.35
2023-02-18T08:16:49.043Z,5.36
2023-02-18T08:21:57.372Z,5.39
2023-02-18T08:27:05.506Z,5.41
2023-02-18T08:32:14.016Z,5.44
2023-02-18T08:37:22.472Z,5.47
2023-02-18T08:42:32.709Z,5.50
2023-02-18T08:48:16.968Z,5.52
2023-02-18T08:53:09.326Z,5.55
2023-02-18T08:58:17.726Z,5.58
2023-02-18T09:03:25.574Z,5.62
2023-02-18T09:08:34.901Z,5.64
2023-02-18T09:13:43.590Z,5.68
2023-02-18T09:18:52.296Z,5.72
2023-02-18T09:24:00.223Z,5.77
2023-02-18T09:29:09.841Z,5.82
2023-02-18T09:34:18.480Z,5.86
2023-02-18T09:39:28.075Z,5.90
2023-02-18T09:44:40.808Z,5.94
2023-02-18T09:49:54.748Z,5.99
2023-02-18T09:55:03.616Z,6.05
2023-02-18T10:00:19.231Z,6.09
2023-02-18T10:05:28.861Z,6.14
2023-02-18T10:10:44.291Z,6.19
2023-02-18T10:15:53.442Z,6.24
2023-02-18T10:21:13.570Z,6.31
2023-02-18T10:26:23.733Z,6.39
2023-02-18T10:31:38.208Z,6.47
2023-02-18T10:36:49.415Z,6.56
2023-02-18T10:42:10.171Z,6.63
2023-02-18T10:47:32.878Z,6.68
2023-02-18T10:52:45.409Z,6.70
2023-02-18T10:57:56.081Z,6.74
2023-02-18T11:03:18.024Z,6.77
2023-02-18T11:08:30.275Z,6.79
2023-02-18T11:13:36.084Z,6.80
2023-02-18T11:18:47.444Z,6.82
2023-02-18T11:23:57.780Z,6.84
2023-02-18T11:29:08.641Z,6.89
2023-02-18T11:34:24.006Z,6.94
2023-02-18T11:39:32.912Z,6.99
2023-02-18T11:44:43.835Z,7.05
2023-02-18T11:50:18.224Z,7.12
2023-02-18T11:55:27.876Z,7.16
2023-02-18T12:00:44.200Z,7.19
2023-02-18T12:05:52.543Z,7.20
2023-02-18T12:11:07.379Z,7.21
2023-02-18T12:16:27.308Z,7.22
2023-02-18T12:22:00.323Z,7.20
2023-02-18T12:27:18.076Z,7.16
2023-02-18T12:32:38.589Z,7.13
2023-02-18T12:38:06.752Z,7.11
2023-02-18T12:43:25.040Z,7.10
2023-02-18T12:48:51.941Z,7.09
2023-02-18T12:54:24.950Z,7.09
2023-02-18T12:59:54.823Z,7.07
2023-02-18T13:05:11.208Z,7.05
2023-02-18T13:10:45.572Z,7.02
2023-02-18T13:16:01.575Z,7.01
2023-02-18T13:21:14.751Z,7.00
2023-02-18T13:26:23.913Z,6.97
2023-02-18T13:31:47.488Z,6.94
2023-02-18T13:37:09.533Z,6.92
2023-02-18T13:42:40.091Z,6.91
2023-02-18T13:47:50.212Z,6.89
2023-02-18T13:53:17.675Z,6.86
2023-02-18T13:58:33.055Z,6.84
2023-02-18T14:03:58.833Z,6.81
2023-02-18T14:09:40.381Z,6.80
2023-02-18T14:14:49.366Z,6.77
2023-02-18T14:20:20.320Z,6.74
2023-02-18T14:25:41.651Z,6.71
2023-02-18T14:30:51.391Z,6.68
2023-02-18T14:36:09.370Z,6.64
2023-02-18T14:41:37.202Z,6.62
2023-02-18T14:47:02.278Z,6.58
2023-02-18T14:52:22.909Z,6.54
2023-02-18T14:57:40.920Z,6.52
2023-02-18T15:02:53.166Z,6.50
2023-02-18T15:08:03.863Z,6.47
2023-02-18T15:13:21.104Z,6.44
2023-02-18T15:18:36.954Z,6.42
2023-02-18T15:23:45.602Z,6.40
2023-02-18T15:29:01.109Z,6.37
2023-02-18T15:34:27.498Z,6.35
2023-02-18T15:39:39.204Z,6.34
2023-02-18T15:44:50.741Z,6.34
2023-02-18T15:50:03.059Z,6.34
2023-02-18T15:55:17.528Z,6.33
2023-02-18T16:00:34.149Z,6.32
2023-02-18T16:05:44.322Z,6.30
2023-02-18T16:11:00.442Z,6.29
2023-02-18T16:16:23.252Z,6.26
2023-02-18T16:21:39.382Z,6.23
2023-02-18T16:26:52.468Z,6.20
2023-02-18T16:32:00.159Z,6.17
2023-02-18T16:37:31.401Z,6.14
2023-02-18T16:42:39.497Z,6.11
2023-02-18T16:47:49.429Z,6.08
2023-02-18T16:52:57.855Z,6.05
2023-02-18T16:58:11.285Z,6.02
2023-02-18T17:03:23.040Z,6.00
2023-02-18T17:08:31.567Z,5.98
2023-02-18T17:13:39.025Z,5.96
2023-02-18T17:18:49.009Z,5.94
2023-02-18T17:23:57.953Z,5.91
2023-02-18T17:29:06.214Z,5.88
2023-02-18T17:34:17.420Z,5.86
2023-02-18T17:39:25.496Z,5.83
2023-02-18T17:44:33.801Z,5.82
2023-02-18T17:49:42.855Z,5.80
2023-02-18T17:54:51.606Z,5.80
2023-02-18T18:00:00.687Z,5.78
2023-02-18T18:05:15.790Z,5.76
2023-02-18T18:10:29.145Z,5.73
2023-02-18T18:15:41.403Z,5.70
2023-02-18T18:20:47.566Z,5.68
2023-02-18T18:25:57.633Z,5.67
2023-02-18T18:31:06.916Z,5.65
2023-02-18T18:36:16.547Z,5.63
2023-02-18T18:41:26.478Z,5.62
2023-02-18T18:46:34.763Z,5.60
2023-02-18T18:51:43.330Z,5.59
2023-02-18T18:56:51.335Z,5.59
2023-02-18T19:02:00.474Z,5.59
2023-02-18T19:07:09.283Z,5.58
2023-02-18T19:12:18.673Z,5.56
2023-02-18T19:17:27.034Z,5.55
2023-02-18T19:22:34.424Z,5.53
2023-02-18T19:27:44.844Z,5.52
2023-02-18T19:32:54.729Z,5.49
2023-02-18T19:38:03.648Z,5.48
2023-02-18T19:43:14.830Z,5.47
2023-02-18T19:48:23.849Z,5.44
2023-02-18T19:53:33.088Z,5.43
2023-02-18T19:58:42.052Z,5.42
2023-02-18T20:03:50.854Z,5.41
2023-02-18T20:09:00.179Z,5.40
2023-02-18T20:14:09.209Z,5.39
2023-02-18T20:19:17.568Z,5.38
2023-02-18T20:24:26.866Z,5.37
2023-02-18T20:29:36.816Z,5.37
2023-02-18T20:34:45.003Z,5.35
2023-02-18T20:39:53.212Z,5.33
2023-02-18T20:45:01.266Z,5.32
2023-02-18T20:50:10.093Z,5.29
2023-02-18T20:55:18.765Z,5.27
2023-02-18T21:00:26.890Z,5.25
2023-02-18T21:05:35.267Z,5.22
2023-02-18T21:10:46.871Z,5.21
2023-02-18T21:15:56.102Z,5.20
2023-02-18T21:21:04.717Z,5.19
2023-02-18T21:26:17.854Z,5.17
2023-02-18T21:31:27.436Z,5.16
2023-02-18T21:36:36.412Z,5.15
2023-02-18T21:41:45.367Z,5.13
2023-02-18T21:46:54.533Z,5.10
2023-02-18T21:52:09.628Z,5.09
2023-02-18T21:57:20.297Z,5.07
2023-02-18T22:02:34.288Z,5.06
2023-02-18T22:07:41.996Z,5.05
2023-02-18T22:12:50.364Z,5.02
2023-02-18T22:17:59.316Z,5.00
2023-02-18T22:23:08.420Z,4.98
2023-02-18T22:28:16.010Z,4.95
2023-02-18T22:33:23.611Z,4.93
2023-02-18T22:38:33.067Z,4.90
2023-02-18T22:43:41.566Z,4.87
2023-02-18T22:48:49.661Z,4.84
2023-02-18T22:54:01.614Z,4.81
2023-02-18T22:59:10.688Z,4.78
2023-02-18T23:04:20.625Z,4.76
2023-02-18T23:09:28.664Z,4.74
2023-02-18T23:14:37.429Z,4.73
2023-02-18T23:19:47.440Z,4.72
2023-02-18T23:24:54.878Z,4.70
2023-02-18T23:30:03.202Z,4.69
2023-02-18T23:35:12.012Z,4.68
2023-02-18T23:40:20.059Z,4.66
2023-02-18T23:45:28.336Z,4.63
2023-02-18T23:50:35.632Z,4.60
2023-02-18T23:55:44.353Z,4.57
